sensor_id;sensor_type;location;lat;lon;timestamp;temperature;humidity
15099;DHT22;33900;53.640;9.942;2022-12-10T00:02:14;4.60;91.40
15099;DHT22;33900;53.640;9.942;2022-12-10T00:04:42;4.60;91.50
15099;DHT22;33900;53.640;9.942;2022-12-10T00:07:11;4.60;91.50
15099;DHT22;33900;53.640;9.942;2022-12-10T00:09:37;4.60;91.50
15099;DHT22;33900;53.640;9.942;2022-12-10T00:12:03;4.60;91.50
15099;DHT22;33900;53.640;9.942;2022-12-10T00:14:29;4.60;91.50
15099;DHT22;33900;53.640;9.942;2022-12-10T00:16:55;4.60;91.50
15099;DHT22;33900;53.640;9.942;2022-12-10T00:19:20;4.50;91.50
15099;DHT22;33900;53.640;9.942;2022-12-10T00:21:46;4.50;91.90
15099;DHT22;33900;53.640;9.942;2022-12-10T00:24:12;4.50;91.60
15099;DHT22;33900;53.640;9.942;2022-12-10T00:26:38;4.50;91.60
15099;DHT22;33900;53.640;9.942;2022-12-10T00:29:05;4.50;91.70
15099;DHT22;33900;53.640;9.942;2022-12-10T00:31:32;4.50;91.60
15099;DHT22;33900;53.640;9.942;2022-12-10T00:33:59;4.50;91.60
15099;DHT22;33900;53.640;9.942;2022-12-10T00:36:27;4.50;91.60
15099;DHT22;33900;53.640;9.942;2022-12-10T00:38:52;4.50;91.60
15099;DHT22;33900;53.640;9.942;2022-12-10T00:41:18;4.50;91.60
15099;DHT22;33900;53.640;9.942;2022-12-10T00:43:44;4.50;91.60
15099;DHT22;33900;53.640;9.942;2022-12-10T00:46:10;4.50;91.60
15099;DHT22;33900;53.640;9.942;2022-12-10T00:48:36;4.50;91.60
15099;DHT22;33900;53.640;9.942;2022-12-10T00:51:03;4.50;91.70
15099;DHT22;33900;53.640;9.942;2022-12-10T00:53:30;4.50;91.70
15099;DHT22;33900;53.640;9.942;2022-12-10T00:55:56;4.50;91.70
15099;DHT22;33900;53.640;9.942;2022-12-10T00:58:22;4.50;91.60
15099;DHT22;33900;53.640;9.942;2022-12-10T01:00:54;4.50;91.60
15099;DHT22;33900;53.640;9.942;2022-12-10T01:03:31;4.50;91.60
15099;DHT22;33900;53.640;9.942;2022-12-10T01:05:56;4.50;91.60
15099;DHT22;33900;53.640;9.942;2022-12-10T01:08:22;4.50;91.60
15099;DHT22;33900;53.640;9.942;2022-12-10T01:10:52;4.50;91.60
15099;DHT22;33900;53.640;9.942;2022-12-10T01:13:18;4.50;91.60
15099;DHT22;33900;53.640;9.942;2022-12-10T01:15:44;4.50;91.60
15099;DHT22;33900;53.640;9.942;2022-12-10T01:18:09;4.50;92.00
15099;DHT22;33900;53.640;9.942;2022-12-10T01:20:35;4.50;91.70
15099;DHT22;33900;53.640;9.942;2022-12-10T01:23:02;4.50;91.70
15099;DHT22;33900;53.640;9.942;2022-12-10T01:25:27;4.50;91.60
15099;DHT22;33900;53.640;9.942;2022-12-10T01:27:53;4.50;91.60
15099;DHT22;33900;53.640;9.942;2022-12-10T01:30:19;4.50;91.70
15099;DHT22;33900;53.640;9.942;2022-12-10T01:32:44;4.50;91.70
15099;DHT22;33900;53.640;9.942;2022-12-10T01:35:10;4.40;91.60
15099;DHT22;33900;53.640;9.942;2022-12-10T01:37:38;4.50;91.60
15099;DHT22;33900;53.640;9.942;2022-12-10T01:40:05;4.40;91.60
15099;DHT22;33900;53.640;9.942;2022-12-10T01:42:30;4.40;91.60
15099;DHT22;33900;53.640;9.942;2022-12-10T01:44:59;4.40;91.50
15099;DHT22;33900;53.640;9.942;2022-12-10T01:47:26;4.50;91.50
15099;DHT22;33900;53.640;9.942;2022-12-10T01:49:52;4.40;91.50
15099;DHT22;33900;53.640;9.942;2022-12-10T01:52:18;4.40;91.60
15099;DHT22;33900;53.640;9.942;2022-12-10T01:54:44;4.50;91.60
15099;DHT22;33900;53.640;9.942;2022-12-10T01:57:11;4.40;91.60
15099;DHT22;33900;53.640;9.942;2022-12-10T01:59:38;4.40;91.60
15099;DHT22;33900;53.640;9.942;2022-12-10T02:02:08;4.50;91.60
15099;DHT22;33900;53.640;9.942;2022-12-10T02:11:58;4.40;91.50
15099;DHT22;33900;53.640;9.942;2022-12-10T02:17:01;4.40;91.50
15099;DHT22;33900;53.640;9.942;2022-12-10T02:19:35;4.40;91.60
15099;DHT22;33900;53.640;9.942;2022-12-10T02:22:04;4.40;91.60
15099;DHT22;33900;53.640;9.942;2022-12-10T02:24:32;4.40;91.70
15099;DHT22;33900;53.640;9.942;2022-12-10T02:29:28;4.40;91.70
15099;DHT22;33900;53.640;9.942;2022-12-10T02:31:56;4.40;91.70
15099;DHT22;33900;53.640;9.942;2022-12-10T02:34:23;4.40;91.70
15099;DHT22;33900;53.640;9.942;2022-12-10T02:36:53;4.40;91.70
15099;DHT22;33900;53.640;9.942;2022-12-10T02:39:21;4.30;91.60
15099;DHT22;33900;53.640;9.942;2022-12-10T02:41:54;4.30;91.70
15099;DHT22;33900;53.640;9.942;2022-12-10T02:44:21;4.30;91.60
15099;DHT22;33900;53.640;9.942;2022-12-10T02:46:50;4.30;91.60
15099;DHT22;33900;53.640;9.942;2022-12-10T02:49:18;4.30;91.60
15099;DHT22;33900;53.640;9.942;2022-12-10T02:51:47;4.30;91.60
15099;DHT22;33900;53.640;9.942;2022-12-10T02:54:33;4.30;91.60
15099;DHT22;33900;53.640;9.942;2022-12-10T02:57:00;4.30;91.70
15099;DHT22;33900;53.640;9.942;2022-12-10T03:02:24;4.30;91.60
15099;DHT22;33900;53.640;9.942;2022-12-10T03:05:02;4.30;91.60
15099;DHT22;33900;53.640;9.942;2022-12-10T03:07:52;4.30;91.60
15099;DHT22;33900;53.640;9.942;2022-12-10T03:10:26;4.20;91.50
15099;DHT22;33900;53.640;9.942;2022-12-10T03:12:59;4.30;91.50
15099;DHT22;33900;53.640;9.942;2022-12-10T03:15:27;4.30;91.50
15099;DHT22;33900;53.640;9.942;2022-12-10T03:17:53;4.30;91.50
15099;DHT22;33900;53.640;9.942;2022-12-10T03:20:20;4.20;91.40
15099;DHT22;33900;53.640;9.942;2022-12-10T03:22:47;4.20;91.50
15099;DHT22;33900;53.640;9.942;2022-12-10T03:25:15;4.20;91.50
15099;DHT22;33900;53.640;9.942;2022-12-10T03:27:42;4.20;91.50
15099;DHT22;33900;53.640;9.942;2022-12-10T03:30:08;4.20;91.50
15099;DHT22;33900;53.640;9.942;2022-12-10T03:32:34;4.20;91.50
15099;DHT22;33900;53.640;9.942;2022-12-10T03:35:01;4.20;91.50
15099;DHT22;33900;53.640;9.942;2022-12-10T03:37:27;4.20;91.50
15099;DHT22;33900;53.640;9.942;2022-12-10T03:39:57;4.30;91.40
15099;DHT22;33900;53.640;9.942;2022-12-10T03:42:23;4.30;91.30
15099;DHT22;33900;53.640;9.942;2022-12-10T03:44:49;4.30;91.20
15099;DHT22;33900;53.640;9.942;2022-12-10T03:47:18;4.30;91.20
15099;DHT22;33900;53.640;9.942;2022-12-10T03:49:44;4.30;91.20
15099;DHT22;33900;53.640;9.942;2022-12-10T03:52:12;4.30;91.30
15099;DHT22;33900;53.640;9.942;2022-12-10T03:54:38;4.30;91.30
15099;DHT22;33900;53.640;9.942;2022-12-10T03:57:04;4.30;91.30
15099;DHT22;33900;53.640;9.942;2022-12-10T03:59:30;4.30;91.30
15099;DHT22;33900;53.640;9.942;2022-12-10T04:01:59;4.30;91.30
15099;DHT22;33900;53.640;9.942;2022-12-10T04:04:25;4.40;91.30
15099;DHT22;33900;53.640;9.942;2022-12-10T04:06:51;4.30;91.10
15099;DHT22;33900;53.640;9.942;2022-12-10T04:09:19;4.30;91.40
15099;DHT22;33900;53.640;9.942;2022-12-10T04:11:47;4.40;91.10
15099;DHT22;33900;53.640;9.942;2022-12-10T04:14:14;4.30;91.00
15099;DHT22;33900;53.640;9.942;2022-12-10T04:16:59;4.30;91.10
15099;DHT22;33900;53.640;9.942;2022-12-10T04:19:28;4.30;91.10
15099;DHT22;33900;53.640;9.942;2022-12-10T04:21:53;4.30;91.00
15099;DHT22;33900;53.640;9.942;2022-12-10T04:24:38;4.40;91.00
15099;DHT22;33900;53.640;9.942;2022-12-10T04:27:24;4.30;91.00
15099;DHT22;33900;53.640;9.942;2022-12-10T04:29:53;4.30;91.00
15099;DHT22;33900;53.640;9.942;2022-12-10T04:32:19;4.30;91.00
15099;DHT22;33900;53.640;9.942;2022-12-10T04:34:45;4.40;91.00
15099;DHT22;33900;53.640;9.942;2022-12-10T04:37:11;4.30;91.00
15099;DHT22;33900;53.640;9.942;2022-12-10T04:39:37;4.30;91.00
15099;DHT22;33900;53.640;9.942;2022-12-10T04:42:04;4.30;91.00
15099;DHT22;33900;53.640;9.942;2022-12-10T04:44:33;4.30;90.90
15099;DHT22;33900;53.640;9.942;2022-12-10T04:47:04;4.30;91.00
15099;DHT22;33900;53.640;9.942;2022-12-10T04:49:36;4.30;91.00
15099;DHT22;33900;53.640;9.942;2022-12-10T04:52:04;4.30;91.30
15099;DHT22;33900;53.640;9.942;2022-12-10T04:54:32;4.30;91.00
15099;DHT22;33900;53.640;9.942;2022-12-10T04:56:58;4.30;91.00
15099;DHT22;33900;53.640;9.942;2022-12-10T04:59:27;4.30;91.10
15099;DHT22;33900;53.640;9.942;2022-12-10T05:01:54;4.30;91.10
15099;DHT22;33900;53.640;9.942;2022-12-10T05:04:21;4.30;91.10
15099;DHT22;33900;53.640;9.942;2022-12-10T05:06:47;4.30;91.10
15099;DHT22;33900;53.640;9.942;2022-12-10T05:09:13;4.30;91.10
15099;DHT22;33900;53.640;9.942;2022-12-10T05:11:41;4.30;91.10
15099;DHT22;33900;53.640;9.942;2022-12-10T05:14:11;4.30;91.10
15099;DHT22;33900;53.640;9.942;2022-12-10T05:16:43;4.30;91.00
15099;DHT22;33900;53.640;9.942;2022-12-10T05:19:13;4.30;91.10
15099;DHT22;33900;53.640;9.942;2022-12-10T05:21:39;4.30;91.00
15099;DHT22;33900;53.640;9.942;2022-12-10T05:24:28;4.40;91.00
15099;DHT22;33900;53.640;9.942;2022-12-10T05:26:57;4.40;91.10
15099;DHT22;33900;53.640;9.942;2022-12-10T05:29:24;4.40;91.00
15099;DHT22;33900;53.640;9.942;2022-12-10T05:31:53;4.40;91.00
15099;DHT22;33900;53.640;9.942;2022-12-10T05:34:20;4.40;91.00
15099;DHT22;33900;53.640;9.942;2022-12-10T05:36:47;4.40;90.90
15099;DHT22;33900;53.640;9.942;2022-12-10T05:39:17;4.40;90.90
15099;DHT22;33900;53.640;9.942;2022-12-10T05:41:45;4.40;90.90
15099;DHT22;33900;53.640;9.942;2022-12-10T05:44:17;4.40;90.90
15099;DHT22;33900;53.640;9.942;2022-12-10T05:46:44;4.40;91.00
15099;DHT22;33900;53.640;9.942;2022-12-10T05:49:10;4.40;91.00
15099;DHT22;33900;53.640;9.942;2022-12-10T05:51:42;4.40;90.90
15099;DHT22;33900;53.640;9.942;2022-12-10T05:54:12;4.40;90.90
15099;DHT22;33900;53.640;9.942;2022-12-10T05:56:40;4.40;90.90
15099;DHT22;33900;53.640;9.942;2022-12-10T05:59:06;4.40;90.90
15099;DHT22;33900;53.640;9.942;2022-12-10T06:01:33;4.40;90.90
15099;DHT22;33900;53.640;9.942;2022-12-10T06:04:01;4.40;90.90
15099;DHT22;33900;53.640;9.942;2022-12-10T06:06:32;4.40;90.90
15099;DHT22;33900;53.640;9.942;2022-12-10T06:08:58;4.40;90.90
15099;DHT22;33900;53.640;9.942;2022-12-10T06:11:24;4.40;90.90
15099;DHT22;33900;53.640;9.942;2022-12-10T06:13:51;4.40;90.90
15099;DHT22;33900;53.640;9.942;2022-12-10T06:16:17;4.40;90.90
15099;DHT22;33900;53.640;9.942;2022-12-10T06:18:43;4.30;90.90
15099;DHT22;33900;53.640;9.942;2022-12-10T06:21:09;4.40;90.90
15099;DHT22;33900;53.640;9.942;2022-12-10T06:23:36;4.30;90.80
15099;DHT22;33900;53.640;9.942;2022-12-10T06:26:06;4.30;90.90
15099;DHT22;33900;53.640;9.942;2022-12-10T06:28:35;4.30;90.90
15099;DHT22;33900;53.640;9.942;2022-12-10T06:31:02;4.30;90.90
15099;DHT22;33900;53.640;9.942;2022-12-10T06:33:28;4.30;90.90
15099;DHT22;33900;53.640;9.942;2022-12-10T06:35:56;4.30;90.90
15099;DHT22;33900;53.640;9.942;2022-12-10T06:38:22;4.30;90.90
15099;DHT22;33900;53.640;9.942;2022-12-10T06:40:47;4.30;90.90
15099;DHT22;33900;53.640;9.942;2022-12-10T06:43:13;4.30;90.90
15099;DHT22;33900;53.640;9.942;2022-12-10T06:45:39;4.30;90.90
15099;DHT22;33900;53.640;9.942;2022-12-10T06:48:08;4.30;90.90
15099;DHT22;33900;53.640;9.942;2022-12-10T06:50:33;4.30;90.90
15099;DHT22;33900;53.640;9.942;2022-12-10T06:52:59;4.30;90.90
15099;DHT22;33900;53.640;9.942;2022-12-10T06:55:25;4.30;90.90
15099;DHT22;33900;53.640;9.942;2022-12-10T06:57:51;4.30;90.90
15099;DHT22;33900;53.640;9.942;2022-12-10T07:00:17;4.30;90.90
15099;DHT22;33900;53.640;9.942;2022-12-10T07:02:43;4.30;90.90
15099;DHT22;33900;53.640;9.942;2022-12-10T07:05:09;4.30;90.90
15099;DHT22;33900;53.640;9.942;2022-12-10T07:07:35;4.30;90.90
15099;DHT22;33900;53.640;9.942;2022-12-10T07:10:00;4.30;90.90
15099;DHT22;33900;53.640;9.942;2022-12-10T07:12:26;4.30;90.80
15099;DHT22;33900;53.640;9.942;2022-12-10T07:14:52;4.30;90.80
15099;DHT22;33900;53.640;9.942;2022-12-10T07:17:18;4.30;90.80
15099;DHT22;33900;53.640;9.942;2022-12-10T07:19:43;4.30;90.80
15099;DHT22;33900;53.640;9.942;2022-12-10T07:22:11;4.30;90.80
15099;DHT22;33900;53.640;9.942;2022-12-10T07:24:36;4.20;90.80
15099;DHT22;33900;53.640;9.942;2022-12-10T07:27:05;4.30;90.80
15099;DHT22;33900;53.640;9.942;2022-12-10T07:29:31;4.20;90.80
15099;DHT22;33900;53.640;9.942;2022-12-10T07:31:56;4.20;90.80
15099;DHT22;33900;53.640;9.942;2022-12-10T07:34:25;4.20;90.80
15099;DHT22;33900;53.640;9.942;2022-12-10T07:36:54;4.20;90.80
15099;DHT22;33900;53.640;9.942;2022-12-10T07:39:20;4.20;90.70
15099;DHT22;33900;53.640;9.942;2022-12-10T07:41:49;4.20;90.70
15099;DHT22;33900;53.640;9.942;2022-12-10T07:44:16;4.20;90.60
15099;DHT22;33900;53.640;9.942;2022-12-10T07:46:44;4.20;90.60
15099;DHT22;33900;53.640;9.942;2022-12-10T07:49:15;4.20;90.60
15099;DHT22;33900;53.640;9.942;2022-12-10T07:51:45;4.20;90.70
15099;DHT22;33900;53.640;9.942;2022-12-10T07:54:11;4.20;90.70
15099;DHT22;33900;53.640;9.942;2022-12-10T07:56:40;4.20;90.70
15099;DHT22;33900;53.640;9.942;2022-12-10T07:59:08;4.20;90.70
15099;DHT22;33900;53.640;9.942;2022-12-10T08:01:34;4.20;90.60
15099;DHT22;33900;53.640;9.942;2022-12-10T08:03:59;4.20;90.60
15099;DHT22;33900;53.640;9.942;2022-12-10T08:06:26;4.20;90.60
15099;DHT22;33900;53.640;9.942;2022-12-10T08:08:52;4.10;90.60
15099;DHT22;33900;53.640;9.942;2022-12-10T08:11:18;4.10;90.60
15099;DHT22;33900;53.640;9.942;2022-12-10T08:13:48;4.10;90.70
15099;DHT22;33900;53.640;9.942;2022-12-10T08:16:19;4.10;90.60
15099;DHT22;33900;53.640;9.942;2022-12-10T08:18:48;4.10;90.60
15099;DHT22;33900;53.640;9.942;2022-12-10T08:21:15;4.00;90.60
15099;DHT22;33900;53.640;9.942;2022-12-10T08:23:45;4.00;90.60
15099;DHT22;33900;53.640;9.942;2022-12-10T08:26:12;4.00;90.60
15099;DHT22;33900;53.640;9.942;2022-12-10T08:28:38;4.00;90.60
15099;DHT22;33900;53.640;9.942;2022-12-10T08:31:08;4.00;90.70
15099;DHT22;33900;53.640;9.942;2022-12-10T08:33:36;4.00;90.60
15099;DHT22;33900;53.640;9.942;2022-12-10T08:36:05;4.00;90.60
15099;DHT22;33900;53.640;9.942;2022-12-10T08:38:31;3.90;90.60
15099;DHT22;33900;53.640;9.942;2022-12-10T08:40:57;3.90;90.70
15099;DHT22;33900;53.640;9.942;2022-12-10T08:43:23;3.90;90.70
15099;DHT22;33900;53.640;9.942;2022-12-10T08:45:48;3.90;90.70
15099;DHT22;33900;53.640;9.942;2022-12-10T08:48:17;3.90;90.80
15099;DHT22;33900;53.640;9.942;2022-12-10T08:50:43;3.90;90.80
15099;DHT22;33900;53.640;9.942;2022-12-10T08:53:12;3.90;90.80
15099;DHT22;33900;53.640;9.942;2022-12-10T08:55:42;3.90;90.90
15099;DHT22;33900;53.640;9.942;2022-12-10T08:58:08;3.90;90.90
15099;DHT22;33900;53.640;9.942;2022-12-10T09:00:34;3.90;90.90
15099;DHT22;33900;53.640;9.942;2022-12-10T09:03:00;3.90;90.90
15099;DHT22;33900;53.640;9.942;2022-12-10T09:05:25;3.90;91.00
15099;DHT22;33900;53.640;9.942;2022-12-10T09:07:51;3.90;91.00
15099;DHT22;33900;53.640;9.942;2022-12-10T09:10:17;3.90;91.00
15099;DHT22;33900;53.640;9.942;2022-12-10T09:12:43;3.90;90.90
15099;DHT22;33900;53.640;9.942;2022-12-10T09:15:09;3.90;90.80
15099;DHT22;33900;53.640;9.942;2022-12-10T09:17:36;3.80;90.80
15099;DHT22;33900;53.640;9.942;2022-12-10T09:20:02;3.80;90.90
15099;DHT22;33900;53.640;9.942;2022-12-10T09:22:28;3.80;90.80
15099;DHT22;33900;53.640;9.942;2022-12-10T09:24:54;3.80;90.80
15099;DHT22;33900;53.640;9.942;2022-12-10T09:27:19;3.80;90.90
15099;DHT22;33900;53.640;9.942;2022-12-10T09:29:47;3.80;90.90
15099;DHT22;33900;53.640;9.942;2022-12-10T09:32:13;3.80;90.90
15099;DHT22;33900;53.640;9.942;2022-12-10T09:34:38;3.80;90.90
15099;DHT22;33900;53.640;9.942;2022-12-10T09:37:04;3.80;90.90
15099;DHT22;33900;53.640;9.942;2022-12-10T09:39:30;3.80;90.90
15099;DHT22;33900;53.640;9.942;2022-12-10T09:42:02;3.80;90.80
15099;DHT22;33900;53.640;9.942;2022-12-10T09:47:17;3.80;90.90
15099;DHT22;33900;53.640;9.942;2022-12-10T09:49:49;3.80;90.90
15099;DHT22;33900;53.640;9.942;2022-12-10T09:52:19;3.80;90.90
15099;DHT22;33900;53.640;9.942;2022-12-10T09:54:48;3.80;91.00
15099;DHT22;33900;53.640;9.942;2022-12-10T09:57:22;3.80;91.00
15099;DHT22;33900;53.640;9.942;2022-12-10T09:59:50;3.70;91.00
15099;DHT22;33900;53.640;9.942;2022-12-10T10:04:45;3.70;91.10
15099;DHT22;33900;53.640;9.942;2022-12-10T10:07:17;3.80;91.10
15099;DHT22;33900;53.640;9.942;2022-12-10T10:09:44;3.70;91.00
15099;DHT22;33900;53.640;9.942;2022-12-10T10:12:12;3.80;91.10
15099;DHT22;33900;53.640;9.942;2022-12-10T10:14:44;3.80;91.00
15099;DHT22;33900;53.640;9.942;2022-12-10T10:17:19;3.80;91.10
15099;DHT22;33900;53.640;9.942;2022-12-10T10:19:46;3.80;91.10
15099;DHT22;33900;53.640;9.942;2022-12-10T10:22:11;3.70;91.40
15099;DHT22;33900;53.640;9.942;2022-12-10T10:24:41;3.70;91.10
15099;DHT22;33900;53.640;9.942;2022-12-10T10:27:17;3.70;91.10
15099;DHT22;33900;53.640;9.942;2022-12-10T10:29:48;3.70;91.20
15099;DHT22;33900;53.640;9.942;2022-12-10T10:34:40;3.70;91.20
15099;DHT22;33900;53.640;9.942;2022-12-10T10:37:06;3.70;91.20
15099;DHT22;33900;53.640;9.942;2022-12-10T10:39:37;3.70;91.20
15099;DHT22;33900;53.640;9.942;2022-12-10T10:42:07;3.70;91.20
15099;DHT22;33900;53.640;9.942;2022-12-10T10:44:34;3.80;91.20
15099;DHT22;33900;53.640;9.942;2022-12-10T10:47:23;3.70;91.20
15099;DHT22;33900;53.640;9.942;2022-12-10T10:49:49;3.80;91.20
15099;DHT22;33900;53.640;9.942;2022-12-10T10:52:15;3.80;91.20
15099;DHT22;33900;53.640;9.942;2022-12-10T10:54:45;3.80;91.20
15099;DHT22;33900;53.640;9.942;2022-12-10T10:59:51;3.80;91.20
15099;DHT22;33900;53.640;9.942;2022-12-10T11:02:19;3.80;91.20
15099;DHT22;33900;53.640;9.942;2022-12-10T11:04:52;3.80;91.10
15099;DHT22;33900;53.640;9.942;2022-12-10T11:07:52;3.80;91.00
15099;DHT22;33900;53.640;9.942;2022-12-10T11:10:20;3.80;91.00
15099;DHT22;33900;53.640;9.942;2022-12-10T11:13:07;3.80;91.00
15099;DHT22;33900;53.640;9.942;2022-12-10T11:15:37;3.80;91.00
15099;DHT22;33900;53.640;9.942;2022-12-10T11:21:22;3.80;91.00
15099;DHT22;33900;53.640;9.942;2022-12-10T11:23:42;3.70;91.00
15099;DHT22;33900;53.640;9.942;2022-12-10T11:28:48;3.80;91.10
15099;DHT22;33900;53.640;9.942;2022-12-10T11:34:19;3.70;91.10
15099;DHT22;33900;53.640;9.942;2022-12-10T11:37:01;3.80;91.10
15099;DHT22;33900;53.640;9.942;2022-12-10T11:47:34;3.80;91.20
15099;DHT22;33900;53.640;9.942;2022-12-10T11:50:17;3.80;91.20
15099;DHT22;33900;53.640;9.942;2022-12-10T11:52:49;3.80;91.20
15099;DHT22;33900;53.640;9.942;2022-12-10T12:00:30;3.80;91.10
15099;DHT22;33900;53.640;9.942;2022-12-10T12:05:41;3.80;91.10
15099;DHT22;33900;53.640;9.942;2022-12-10T12:10:50;3.80;91.10
15099;DHT22;33900;53.640;9.942;2022-12-10T12:13:28;3.80;91.00
15099;DHT22;33900;53.640;9.942;2022-12-10T12:16:01;3.90;91.00
15099;DHT22;33900;53.640;9.942;2022-12-10T12:21:10;3.90;91.10
15099;DHT22;33900;53.640;9.942;2022-12-10T12:23:56;3.90;91.10
15099;DHT22;33900;53.640;9.942;2022-12-10T12:26:29;3.90;91.10
15099;DHT22;33900;53.640;9.942;2022-12-10T12:34:17;3.80;91.10
15099;DHT22;33900;53.640;9.942;2022-12-10T12:36:44;3.80;91.10
15099;DHT22;33900;53.640;9.942;2022-12-10T12:44:33;3.90;91.10
15099;DHT22;33900;53.640;9.942;2022-12-10T12:47:05;3.90;91.10
15099;DHT22;33900;53.640;9.942;2022-12-10T12:49:37;3.90;91.10
15099;DHT22;33900;53.640;9.942;2022-12-10T12:54:56;3.90;91.10
15099;DHT22;33900;53.640;9.942;2022-12-10T13:05:02;3.90;91.10
15099;DHT22;33900;53.640;9.942;2022-12-10T13:07:33;3.90;91.10
15099;DHT22;33900;53.640;9.942;2022-12-10T13:18:01;3.80;91.00
15099;DHT22;33900;53.640;9.942;2022-12-10T13:20:34;3.90;91.00
15099;DHT22;33900;53.640;9.942;2022-12-10T13:23:05;3.90;91.00
15099;DHT22;33900;53.640;9.942;2022-12-10T13:28:25;3.90;91.00
15099;DHT22;33900;53.640;9.942;2022-12-10T13:31:08;3.90;91.00
15099;DHT22;33900;53.640;9.942;2022-12-10T13:41:30;3.90;91.00
15099;DHT22;33900;53.640;9.942;2022-12-10T13:47:00;3.90;91.10
15099;DHT22;33900;53.640;9.942;2022-12-10T13:49:29;3.90;90.90
15099;DHT22;33900;53.640;9.942;2022-12-10T13:51:59;3.90;90.90
15099;DHT22;33900;53.640;9.942;2022-12-10T13:57:27;3.90;90.90
15099;DHT22;33900;53.640;9.942;2022-12-10T14:05:35;3.90;90.90
15099;DHT22;33900;53.640;9.942;2022-12-10T14:08:06;3.90;90.80
15099;DHT22;33900;53.640;9.942;2022-12-10T14:10:35;3.90;90.80
15099;DHT22;33900;53.640;9.942;2022-12-10T14:13:03;3.90;90.80
15099;DHT22;33900;53.640;9.942;2022-12-10T14:15:29;3.80;90.80
15099;DHT22;33900;53.640;9.942;2022-12-10T14:18:16;3.80;90.80
15099;DHT22;33900;53.640;9.942;2022-12-10T14:20:44;3.80;90.80
15099;DHT22;33900;53.640;9.942;2022-12-10T14:23:26;3.80;90.80
15099;DHT22;33900;53.640;9.942;2022-12-10T14:26:03;3.80;90.80
15099;DHT22;33900;53.640;9.942;2022-12-10T14:28:29;3.80;90.80
15099;DHT22;33900;53.640;9.942;2022-12-10T14:30:55;3.80;90.80
15099;DHT22;33900;53.640;9.942;2022-12-10T14:33:22;3.80;90.80
15099;DHT22;33900;53.640;9.942;2022-12-10T14:35:49;3.80;90.80
15099;DHT22;33900;53.640;9.942;2022-12-10T14:38:20;3.80;90.80
15099;DHT22;33900;53.640;9.942;2022-12-10T14:40:46;3.80;90.80
15099;DHT22;33900;53.640;9.942;2022-12-10T14:46:02;3.80;90.80
15099;DHT22;33900;53.640;9.942;2022-12-10T14:48:27;3.80;90.80
15099;DHT22;33900;53.640;9.942;2022-12-10T14:50:53;3.80;90.80
15099;DHT22;33900;53.640;9.942;2022-12-10T14:53:23;3.80;90.70
15099;DHT22;33900;53.640;9.942;2022-12-10T14:55:53;3.80;90.80
15099;DHT22;33900;53.640;9.942;2022-12-10T14:58:32;3.80;90.80
15099;DHT22;33900;53.640;9.942;2022-12-10T15:01:02;3.80;90.80
15099;DHT22;33900;53.640;9.942;2022-12-10T15:03:29;3.80;90.80
15099;DHT22;33900;53.640;9.942;2022-12-10T15:12:29;3.80;90.70
15099;DHT22;33900;53.640;9.942;2022-12-10T15:14:57;3.80;90.70
15099;DHT22;33900;53.640;9.942;2022-12-10T15:17:38;3.80;90.70
15099;DHT22;33900;53.640;9.942;2022-12-10T15:20:18;3.80;90.70
15099;DHT22;33900;53.640;9.942;2022-12-10T15:22:44;3.80;90.70
15099;DHT22;33900;53.640;9.942;2022-12-10T15:25:12;3.80;90.80
15099;DHT22;33900;53.640;9.942;2022-12-10T15:27:51;3.80;90.70
15099;DHT22;33900;53.640;9.942;2022-12-10T15:30:38;3.80;90.70
15099;DHT22;33900;53.640;9.942;2022-12-10T15:33:04;3.80;90.70
15099;DHT22;33900;53.640;9.942;2022-12-10T15:35:34;3.80;90.70
15099;DHT22;33900;53.640;9.942;2022-12-10T15:38:00;3.80;90.70
15099;DHT22;33900;53.640;9.942;2022-12-10T15:40:28;3.80;90.60
15099;DHT22;33900;53.640;9.942;2022-12-10T15:43:19;3.80;90.60
15099;DHT22;33900;53.640;9.942;2022-12-10T15:45:49;3.80;90.60
15099;DHT22;33900;53.640;9.942;2022-12-10T15:48:14;3.80;90.60
15099;DHT22;33900;53.640;9.942;2022-12-10T15:50:42;3.80;90.50
15099;DHT22;33900;53.640;9.942;2022-12-10T15:53:13;3.80;90.60
15099;DHT22;33900;53.640;9.942;2022-12-10T15:55:40;3.80;90.60
15099;DHT22;33900;53.640;9.942;2022-12-10T15:58:11;3.80;90.50
15099;DHT22;33900;53.640;9.942;2022-12-10T16:00:38;3.70;90.50
15099;DHT22;33900;53.640;9.942;2022-12-10T16:03:11;3.70;90.50
15099;DHT22;33900;53.640;9.942;2022-12-10T16:05:38;3.70;90.90
15099;DHT22;33900;53.640;9.942;2022-12-10T16:10:35;3.80;90.50
15099;DHT22;33900;53.640;9.942;2022-12-10T16:13:03;3.70;90.50
15099;DHT22;33900;53.640;9.942;2022-12-10T16:15:30;3.70;90.50
15099;DHT22;33900;53.640;9.942;2022-12-10T16:17:58;3.70;90.50
15099;DHT22;33900;53.640;9.942;2022-12-10T16:20:25;3.80;90.50
15099;DHT22;33900;53.640;9.942;2022-12-10T16:22:53;3.70;90.50
15099;DHT22;33900;53.640;9.942;2022-12-10T16:25:21;3.70;90.50
15099;DHT22;33900;53.640;9.942;2022-12-10T16:27:49;3.80;90.50
15099;DHT22;33900;53.640;9.942;2022-12-10T16:30:20;3.70;90.50
15099;DHT22;33900;53.640;9.942;2022-12-10T16:32:46;3.70;90.50
15099;DHT22;33900;53.640;9.942;2022-12-10T16:35:12;3.70;90.50
15099;DHT22;33900;53.640;9.942;2022-12-10T16:37:45;3.70;90.50
15099;DHT22;33900;53.640;9.942;2022-12-10T16:40:12;3.70;90.50
15099;DHT22;33900;53.640;9.942;2022-12-10T16:42:39;3.70;90.50
15099;DHT22;33900;53.640;9.942;2022-12-10T16:45:10;3.80;90.60
15099;DHT22;33900;53.640;9.942;2022-12-10T16:47:37;3.80;90.60
15099;DHT22;33900;53.640;9.942;2022-12-10T16:50:04;3.80;90.60
15099;DHT22;33900;53.640;9.942;2022-12-10T16:52:30;3.70;90.50
15099;DHT22;33900;53.640;9.942;2022-12-10T16:54:56;3.70;90.50
15099;DHT22;33900;53.640;9.942;2022-12-10T16:57:22;3.70;90.50
15099;DHT22;33900;53.640;9.942;2022-12-10T16:59:48;3.70;90.50
15099;DHT22;33900;53.640;9.942;2022-12-10T17:02:14;3.70;90.50
15099;DHT22;33900;53.640;9.942;2022-12-10T17:04:41;3.70;90.50
15099;DHT22;33900;53.640;9.942;2022-12-10T17:07:07;3.70;90.50
15099;DHT22;33900;53.640;9.942;2022-12-10T17:09:33;3.70;90.50
15099;DHT22;33900;53.640;9.942;2022-12-10T17:11:59;3.70;90.50
15099;DHT22;33900;53.640;9.942;2022-12-10T17:14:36;3.60;90.40
15099;DHT22;33900;53.640;9.942;2022-12-10T17:17:03;3.70;90.50
15099;DHT22;33900;53.640;9.942;2022-12-10T17:19:36;3.60;90.40
15099;DHT22;33900;53.640;9.942;2022-12-10T17:22:01;3.70;90.50
15099;DHT22;33900;53.640;9.942;2022-12-10T17:24:27;3.70;90.50
15099;DHT22;33900;53.640;9.942;2022-12-10T17:26:55;3.70;90.50
15099;DHT22;33900;53.640;9.942;2022-12-10T17:29:27;3.60;90.40
15099;DHT22;33900;53.640;9.942;2022-12-10T17:31:54;3.60;90.40
15099;DHT22;33900;53.640;9.942;2022-12-10T17:34:19;3.60;90.40
15099;DHT22;33900;53.640;9.942;2022-12-10T17:36:49;3.60;90.40
15099;DHT22;33900;53.640;9.942;2022-12-10T17:39:15;3.60;90.40
15099;DHT22;33900;53.640;9.942;2022-12-10T17:41:41;3.60;90.40
15099;DHT22;33900;53.640;9.942;2022-12-10T17:44:07;3.60;90.40
15099;DHT22;33900;53.640;9.942;2022-12-10T17:46:33;3.60;90.40
15099;DHT22;33900;53.640;9.942;2022-12-10T17:48:58;3.60;90.40
15099;DHT22;33900;53.640;9.942;2022-12-10T17:51:25;3.60;90.40
15099;DHT22;33900;53.640;9.942;2022-12-10T17:53:52;3.60;90.40